Goldvein, Virginia
Current Conditions -  °F | °C
As of 7:15 AM on Tuesday 27 Jan 2015 (Local Time) from KHWY Reporting Station
Overcast Overcast  
Wind Chill: -7°   Ceiling: 4900
Heat Index: -1°   Visibility: 10mi
Dew Point: -3°   Wind: 16mph
Humidity: 87%   Direction: 340°NNW
Pressure: 29.79"   Gusts: 22mph
Location:  38.45°N, 77.65°W
Report Text: KHWY 271215Z AUTO 34014G19KT 10SM BKN049 OVC080 M01/M03 A2979 RMK AO2 T10071026
Loading
Personal Weather Stations






























Interactive Weather Map New forecast layout! Learn more

10-Day Weather Forecast

Advertisements
Track Severe Weather on mobile